sensor_id;sensor_type;location;lat;lon;timestamp;temperature;humidity
10149;DHT22;5115;50.920;6.376;2024-02-21T00:01:44;10.40;99.90
10149;DHT22;5115;50.920;6.376;2024-02-21T00:04:09;10.30;99.90
10149;DHT22;5115;50.920;6.376;2024-02-21T00:06:35;10.40;99.90
10149;DHT22;5115;50.920;6.376;2024-02-21T00:09:00;10.30;99.90
10149;DHT22;5115;50.920;6.376;2024-02-21T00:11:29;10.30;99.90
10149;DHT22;5115;50.920;6.376;2024-02-21T00:13:54;10.30;99.90
10149;DHT22;5115;50.920;6.376;2024-02-21T00:16:20;10.30;99.90
10149;DHT22;5115;50.920;6.376;2024-02-21T00:23:45;10.20;99.90
10149;DHT22;5115;50.920;6.376;2024-02-21T00:26:12;10.00;99.90
10149;DHT22;5115;50.920;6.376;2024-02-21T00:28:38;10.10;99.90
10149;DHT22;5115;50.920;6.376;2024-02-21T00:31:04;10.10;99.90
10149;DHT22;5115;50.920;6.376;2024-02-21T00:33:30;10.10;99.90
10149;DHT22;5115;50.920;6.376;2024-02-21T00:35:56;10.20;99.90
10149;DHT22;5115;50.920;6.376;2024-02-21T00:38:21;10.10;99.90
10149;DHT22;5115;50.920;6.376;2024-02-21T00:40:47;10.20;99.90
10149;DHT22;5115;50.920;6.376;2024-02-21T00:43:13;10.10;99.90
10149;DHT22;5115;50.920;6.376;2024-02-21T00:45:39;10.10;99.90
10149;DHT22;5115;50.920;6.376;2024-02-21T00:48:04;10.10;99.90
10149;DHT22;5115;50.920;6.376;2024-02-21T00:52:56;10.10;99.90
10149;DHT22;5115;50.920;6.376;2024-02-21T00:55:22;10.10;99.90
10149;DHT22;5115;50.920;6.376;2024-02-21T00:57:47;10.10;99.90
10149;DHT22;5115;50.920;6.376;2024-02-21T01:00:13;10.10;99.90
10149;DHT22;5115;50.920;6.376;2024-02-21T01:02:39;10.10;99.90
10149;DHT22;5115;50.920;6.376;2024-02-21T01:05:05;10.10;99.90
10149;DHT22;5115;50.920;6.376;2024-02-21T01:07:30;10.20;99.90
10149;DHT22;5115;50.920;6.376;2024-02-21T01:09:56;10.20;99.90
10149;DHT22;5115;50.920;6.376;2024-02-21T01:12:23;10.30;99.90
10149;DHT22;5115;50.920;6.376;2024-02-21T01:14:53;10.20;99.90
10149;DHT22;5115;50.920;6.376;2024-02-21T01:17:20;10.20;99.90
10149;DHT22;5115;50.920;6.376;2024-02-21T01:19:46;10.20;99.90
10149;DHT22;5115;50.920;6.376;2024-02-21T01:22:15;10.20;99.90
10149;DHT22;5115;50.920;6.376;2024-02-21T01:24:41;10.20;99.90
10149;DHT22;5115;50.920;6.376;2024-02-21T01:27:09;10.20;99.90
10149;DHT22;5115;50.920;6.376;2024-02-21T01:29:34;10.30;99.90
10149;DHT22;5115;50.920;6.376;2024-02-21T01:32:00;10.20;99.90
10149;DHT22;5115;50.920;6.376;2024-02-21T01:34:26;10.20;99.90
10149;DHT22;5115;50.920;6.376;2024-02-21T01:36:52;10.20;99.90
10149;DHT22;5115;50.920;6.376;2024-02-21T01:39:17;10.20;99.90
10149;DHT22;5115;50.920;6.376;2024-02-21T01:41:43;10.20;99.90
10149;DHT22;5115;50.920;6.376;2024-02-21T01:44:08;10.20;99.90
10149;DHT22;5115;50.920;6.376;2024-02-21T01:46:34;10.10;99.90
10149;DHT22;5115;50.920;6.376;2024-02-21T01:51:27;10.20;99.90
10149;DHT22;5115;50.920;6.376;2024-02-21T01:53:53;10.20;99.90
10149;DHT22;5115;50.920;6.376;2024-02-21T01:56:22;10.20;99.90
10149;DHT22;5115;50.920;6.376;2024-02-21T01:58:49;10.20;99.90
10149;DHT22;5115;50.920;6.376;2024-02-21T02:01:16;10.20;99.90
10149;DHT22;5115;50.920;6.376;2024-02-21T02:03:45;10.20;99.90
10149;DHT22;5115;50.920;6.376;2024-02-21T02:06:12;10.20;99.90
10149;DHT22;5115;50.920;6.376;2024-02-21T02:08:38;10.30;99.90
10149;DHT22;5115;50.920;6.376;2024-02-21T02:11:04;10.20;99.90
10149;DHT22;5115;50.920;6.376;2024-02-21T02:13:29;10.20;99.90
10149;DHT22;5115;50.920;6.376;2024-02-21T02:15:58;10.10;99.90
10149;DHT22;5115;50.920;6.376;2024-02-21T02:18:23;10.10;99.90
10149;DHT22;5115;50.920;6.376;2024-02-21T02:20:49;10.10;99.90
10149;DHT22;5115;50.920;6.376;2024-02-21T02:25:47;10.10;99.90
10149;DHT22;5115;50.920;6.376;2024-02-21T02:28:17;10.10;99.90
10149;DHT22;5115;50.920;6.376;2024-02-21T02:30:43;10.00;99.90
10149;DHT22;5115;50.920;6.376;2024-02-21T02:35:37;10.20;99.90
10149;DHT22;5115;50.920;6.376;2024-02-21T02:38:07;10.20;99.90
10149;DHT22;5115;50.920;6.376;2024-02-21T02:40:34;10.20;99.90
10149;DHT22;5115;50.920;6.376;2024-02-21T02:43:00;10.10;99.90
10149;DHT22;5115;50.920;6.376;2024-02-21T02:45:25;10.10;99.90
10149;DHT22;5115;50.920;6.376;2024-02-21T02:47:52;12.60;99.90
10149;DHT22;5115;50.920;6.376;2024-02-21T02:50:24;10.10;99.90
10149;DHT22;5115;50.920;6.376;2024-02-21T02:52:50;10.00;99.90
10149;DHT22;5115;50.920;6.376;2024-02-21T02:55:16;10.10;99.90
10149;DHT22;5115;50.920;6.376;2024-02-21T02:57:42;10.10;99.90
10149;DHT22;5115;50.920;6.376;2024-02-21T03:00:08;10.10;99.90
10149;DHT22;5115;50.920;6.376;2024-02-21T03:02:35;10.00;99.90
10149;DHT22;5115;50.920;6.376;2024-02-21T03:05:00;10.00;99.90
10149;DHT22;5115;50.920;6.376;2024-02-21T03:07:26;10.00;99.90
10149;DHT22;5115;50.920;6.376;2024-02-21T03:09:52;10.10;99.90
10149;DHT22;5115;50.920;6.376;2024-02-21T03:12:18;10.10;99.90
10149;DHT22;5115;50.920;6.376;2024-02-21T03:14:50;10.20;99.90
10149;DHT22;5115;50.920;6.376;2024-02-21T03:17:16;10.20;99.90
10149;DHT22;5115;50.920;6.376;2024-02-21T03:19:41;10.20;99.90
10149;DHT22;5115;50.920;6.376;2024-02-21T03:22:07;10.20;99.90
10149;DHT22;5115;50.920;6.376;2024-02-21T03:24:33;10.20;99.90
10149;DHT22;5115;50.920;6.376;2024-02-21T03:26:59;10.10;99.90
10149;DHT22;5115;50.920;6.376;2024-02-21T03:29:26;10.10;99.90
10149;DHT22;5115;50.920;6.376;2024-02-21T03:31:51;10.10;99.90
10149;DHT22;5115;50.920;6.376;2024-02-21T03:34:17;10.10;99.90
10149;DHT22;5115;50.920;6.376;2024-02-21T03:36:43;10.20;99.90
10149;DHT22;5115;50.920;6.376;2024-02-21T03:39:08;10.20;99.90
10149;DHT22;5115;50.920;6.376;2024-02-21T03:41:35;10.20;99.90
10149;DHT22;5115;50.920;6.376;2024-02-21T03:44:00;10.50;99.90
10149;DHT22;5115;50.920;6.376;2024-02-21T03:46:27;10.00;99.90
10149;DHT22;5115;50.920;6.376;2024-02-21T03:48:53;10.00;99.90
10149;DHT22;5115;50.920;6.376;2024-02-21T03:51:18;10.00;99.90
10149;DHT22;5115;50.920;6.376;2024-02-21T03:53:44;10.00;99.90
10149;DHT22;5115;50.920;6.376;2024-02-21T03:56:09;10.00;99.90
10149;DHT22;5115;50.920;6.376;2024-02-21T03:58:35;10.10;99.90
10149;DHT22;5115;50.920;6.376;2024-02-21T04:01:01;10.10;99.90
10149;DHT22;5115;50.920;6.376;2024-02-21T04:03:27;10.10;99.90
10149;DHT22;5115;50.920;6.376;2024-02-21T04:05:54;10.20;99.90
10149;DHT22;5115;50.920;6.376;2024-02-21T04:08:19;10.00;99.90
10149;DHT22;5115;50.920;6.376;2024-02-21T04:10:45;10.00;99.90
10149;DHT22;5115;50.920;6.376;2024-02-21T04:13:10;10.10;99.90
10149;DHT22;5115;50.920;6.376;2024-02-21T04:15:36;10.10;99.90
10149;DHT22;5115;50.920;6.376;2024-02-21T04:18:02;10.10;99.90
10149;DHT22;5115;50.920;6.376;2024-02-21T04:20:30;10.10;99.90
10149;DHT22;5115;50.920;6.376;2024-02-21T04:22:57;10.20;99.90
10149;DHT22;5115;50.920;6.376;2024-02-21T04:25:23;10.10;99.90
10149;DHT22;5115;50.920;6.376;2024-02-21T04:27:49;10.10;99.90
10149;DHT22;5115;50.920;6.376;2024-02-21T04:30:15;10.10;99.90
10149;DHT22;5115;50.920;6.376;2024-02-21T04:32:41;10.10;99.90
10149;DHT22;5115;50.920;6.376;2024-02-21T04:35:07;10.10;99.90
10149;DHT22;5115;50.920;6.376;2024-02-21T04:37:33;10.10;99.90
10149;DHT22;5115;50.920;6.376;2024-02-21T04:40:00;10.10;99.90
10149;DHT22;5115;50.920;6.376;2024-02-21T04:42:26;10.20;99.90
10149;DHT22;5115;50.920;6.376;2024-02-21T04:44:51;10.20;99.90
10149;DHT22;5115;50.920;6.376;2024-02-21T04:47:17;10.10;99.90
10149;DHT22;5115;50.920;6.376;2024-02-21T04:49:44;10.10;99.90
10149;DHT22;5115;50.920;6.376;2024-02-21T04:52:09;10.20;99.90
10149;DHT22;5115;50.920;6.376;2024-02-21T04:54:35;10.20;99.90
10149;DHT22;5115;50.920;6.376;2024-02-21T04:57:01;10.10;99.90
10149;DHT22;5115;50.920;6.376;2024-02-21T04:59:26;10.20;99.90
10149;DHT22;5115;50.920;6.376;2024-02-21T05:01:52;10.20;99.90
10149;DHT22;5115;50.920;6.376;2024-02-21T05:04:18;10.20;99.90
10149;DHT22;5115;50.920;6.376;2024-02-21T05:06:43;10.20;99.90
10149;DHT22;5115;50.920;6.376;2024-02-21T05:09:10;10.30;99.90
10149;DHT22;5115;50.920;6.376;2024-02-21T05:11:36;10.30;99.90
10149;DHT22;5115;50.920;6.376;2024-02-21T05:14:01;10.20;99.90
10149;DHT22;5115;50.920;6.376;2024-02-21T05:16:28;10.20;99.90
10149;DHT22;5115;50.920;6.376;2024-02-21T05:18:53;10.20;99.90
10149;DHT22;5115;50.920;6.376;2024-02-21T05:21:19;10.20;99.90
10149;DHT22;5115;50.920;6.376;2024-02-21T05:23:44;10.10;99.90
10149;DHT22;5115;50.920;6.376;2024-02-21T05:26:22;10.20;99.90
10149;DHT22;5115;50.920;6.376;2024-02-21T05:28:48;10.00;99.90
10149;DHT22;5115;50.920;6.376;2024-02-21T05:31:14;10.00;99.90
10149;DHT22;5115;50.920;6.376;2024-02-21T05:33:41;10.00;99.90
10149;DHT22;5115;50.920;6.376;2024-02-21T05:36:06;10.00;99.90
10149;DHT22;5115;50.920;6.376;2024-02-21T05:38:32;10.10;99.90
10149;DHT22;5115;50.920;6.376;2024-02-21T05:40:58;10.20;99.90
10149;DHT22;5115;50.920;6.376;2024-02-21T05:43:23;10.30;99.90
10149;DHT22;5115;50.920;6.376;2024-02-21T05:45:49;10.20;99.90
10149;DHT22;5115;50.920;6.376;2024-02-21T05:48:14;10.00;99.90
10149;DHT22;5115;50.920;6.376;2024-02-21T05:50:42;10.00;99.90
10149;DHT22;5115;50.920;6.376;2024-02-21T05:53:09;10.00;99.90
10149;DHT22;5115;50.920;6.376;2024-02-21T05:55:36;10.10;99.90
10149;DHT22;5115;50.920;6.376;2024-02-21T05:58:02;10.00;99.90
10149;DHT22;5115;50.920;6.376;2024-02-21T06:00:28;10.00;99.90
10149;DHT22;5115;50.920;6.376;2024-02-21T06:02:54;10.00;99.90
10149;DHT22;5115;50.920;6.376;2024-02-21T06:05:19;10.00;99.90
10149;DHT22;5115;50.920;6.376;2024-02-21T06:07:45;10.40;99.90
10149;DHT22;5115;50.920;6.376;2024-02-21T06:10:10;10.00;99.90
10149;DHT22;5115;50.920;6.376;2024-02-21T06:12:36;10.00;99.90
10149;DHT22;5115;50.920;6.376;2024-02-21T06:15:03;10.30;99.90
10149;DHT22;5115;50.920;6.376;2024-02-21T06:17:29;10.00;99.90
10149;DHT22;5115;50.920;6.376;2024-02-21T06:19:54;10.10;99.90
10149;DHT22;5115;50.920;6.376;2024-02-21T06:22:20;10.10;99.90
10149;DHT22;5115;50.920;6.376;2024-02-21T06:24:45;10.10;99.90
10149;DHT22;5115;50.920;6.376;2024-02-21T06:27:12;10.10;99.90
10149;DHT22;5115;50.920;6.376;2024-02-21T06:29:40;10.10;99.90
10149;DHT22;5115;50.920;6.376;2024-02-21T06:32:05;10.10;99.90
10149;DHT22;5115;50.920;6.376;2024-02-21T06:34:31;10.10;99.90
10149;DHT22;5115;50.920;6.376;2024-02-21T06:36:57;10.20;99.90
10149;DHT22;5115;50.920;6.376;2024-02-21T06:39:23;10.10;99.90
10149;DHT22;5115;50.920;6.376;2024-02-21T06:41:49;10.20;99.90
10149;DHT22;5115;50.920;6.376;2024-02-21T06:44:16;10.20;99.90
10149;DHT22;5115;50.920;6.376;2024-02-21T06:46:42;10.10;99.90
10149;DHT22;5115;50.920;6.376;2024-02-21T06:49:07;10.40;99.90
10149;DHT22;5115;50.920;6.376;2024-02-21T06:51:33;10.00;99.90
10149;DHT22;5115;50.920;6.376;2024-02-21T06:54:00;10.00;99.90
10149;DHT22;5115;50.920;6.376;2024-02-21T06:56:25;10.00;99.90
10149;DHT22;5115;50.920;6.376;2024-02-21T06:58:55;9.60;99.90
10149;DHT22;5115;50.920;6.376;2024-02-21T07:01:21;10.00;99.90
10149;DHT22;5115;50.920;6.376;2024-02-21T07:03:47;10.10;99.90
10149;DHT22;5115;50.920;6.376;2024-02-21T07:06:12;10.20;99.90
10149;DHT22;5115;50.920;6.376;2024-02-21T07:08:40;10.10;99.90
10149;DHT22;5115;50.920;6.376;2024-02-21T07:11:05;10.10;99.90
10149;DHT22;5115;50.920;6.376;2024-02-21T07:13:32;10.50;99.90
10149;DHT22;5115;50.920;6.376;2024-02-21T07:15:58;10.10;99.90
10149;DHT22;5115;50.920;6.376;2024-02-21T07:18:23;11.00;99.90
10149;DHT22;5115;50.920;6.376;2024-02-21T07:20:51;10.90;99.90
10149;DHT22;5115;50.920;6.376;2024-02-21T07:23:17;10.10;99.90
10149;DHT22;5115;50.920;6.376;2024-02-21T07:25:42;10.10;99.90
10149;DHT22;5115;50.920;6.376;2024-02-21T07:28:09;10.10;99.90
10149;DHT22;5115;50.920;6.376;2024-02-21T07:30:35;10.10;99.90
10149;DHT22;5115;50.920;6.376;2024-02-21T07:33:02;10.10;99.90
10149;DHT22;5115;50.920;6.376;2024-02-21T07:35:28;10.10;99.90
10149;DHT22;5115;50.920;6.376;2024-02-21T07:37:54;10.50;99.90
10149;DHT22;5115;50.920;6.376;2024-02-21T07:40:19;10.10;99.90
10149;DHT22;5115;50.920;6.376;2024-02-21T07:42:45;10.20;99.90
10149;DHT22;5115;50.920;6.376;2024-02-21T07:45:11;10.10;99.90
10149;DHT22;5115;50.920;6.376;2024-02-21T07:47:37;11.20;99.90
10149;DHT22;5115;50.920;6.376;2024-02-21T07:50:04;10.20;99.90
10149;DHT22;5115;50.920;6.376;2024-02-21T07:52:30;10.10;99.90
10149;DHT22;5115;50.920;6.376;2024-02-21T07:54:56;10.10;99.90
10149;DHT22;5115;50.920;6.376;2024-02-21T07:57:21;10.10;99.90
10149;DHT22;5115;50.920;6.376;2024-02-21T07:59:47;10.10;99.90
10149;DHT22;5115;50.920;6.376;2024-02-21T08:02:15;10.80;99.90
10149;DHT22;5115;50.920;6.376;2024-02-21T08:04:41;10.00;99.90
10149;DHT22;5115;50.920;6.376;2024-02-21T08:07:07;10.10;99.90
10149;DHT22;5115;50.920;6.376;2024-02-21T08:09:33;10.10;99.90
10149;DHT22;5115;50.920;6.376;2024-02-21T08:11:59;10.20;99.90
10149;DHT22;5115;50.920;6.376;2024-02-21T08:14:24;10.20;99.90
10149;DHT22;5115;50.920;6.376;2024-02-21T08:16:53;11.20;99.90
10149;DHT22;5115;50.920;6.376;2024-02-21T08:19:21;10.10;99.90
10149;DHT22;5115;50.920;6.376;2024-02-21T08:21:46;10.10;99.90
10149;DHT22;5115;50.920;6.376;2024-02-21T08:24:14;10.00;99.90
10149;DHT22;5115;50.920;6.376;2024-02-21T08:26:41;10.00;99.90
10149;DHT22;5115;50.920;6.376;2024-02-21T08:29:07;10.10;99.90
10149;DHT22;5115;50.920;6.376;2024-02-21T08:31:33;10.20;99.90
10149;DHT22;5115;50.920;6.376;2024-02-21T08:34:00;10.20;99.90
10149;DHT22;5115;50.920;6.376;2024-02-21T08:36:30;10.20;99.90
10149;DHT22;5115;50.920;6.376;2024-02-21T08:38:58;10.20;99.90
10149;DHT22;5115;50.920;6.376;2024-02-21T08:41:24;10.20;99.90
10149;DHT22;5115;50.920;6.376;2024-02-21T08:43:54;10.50;99.90
10149;DHT22;5115;50.920;6.376;2024-02-21T08:46:28;10.20;99.90
10149;DHT22;5115;50.920;6.376;2024-02-21T08:48:54;10.20;99.90
10149;DHT22;5115;50.920;6.376;2024-02-21T08:51:20;10.20;99.90
10149;DHT22;5115;50.920;6.376;2024-02-21T08:53:46;10.30;99.90
10149;DHT22;5115;50.920;6.376;2024-02-21T08:56:12;10.20;99.90
10149;DHT22;5115;50.920;6.376;2024-02-21T08:58:39;10.30;99.90
10149;DHT22;5115;50.920;6.376;2024-02-21T09:01:08;10.30;99.90
10149;DHT22;5115;50.920;6.376;2024-02-21T09:03:37;10.30;99.90
10149;DHT22;5115;50.920;6.376;2024-02-21T09:06:04;10.40;99.90
10149;DHT22;5115;50.920;6.376;2024-02-21T09:08:30;10.30;99.90
10149;DHT22;5115;50.920;6.376;2024-02-21T09:10:55;10.30;99.90
10149;DHT22;5115;50.920;6.376;2024-02-21T09:13:21;10.30;99.90
10149;DHT22;5115;50.920;6.376;2024-02-21T09:15:48;10.40;99.90
10149;DHT22;5115;50.920;6.376;2024-02-21T09:18:14;10.40;99.90
10149;DHT22;5115;50.920;6.376;2024-02-21T09:20:40;10.50;99.90
10149;DHT22;5115;50.920;6.376;2024-02-21T09:23:05;10.50;99.90
10149;DHT22;5115;50.920;6.376;2024-02-21T09:25:31;10.60;99.90
10149;DHT22;5115;50.920;6.376;2024-02-21T09:27:57;10.60;99.90
10149;DHT22;5115;50.920;6.376;2024-02-21T09:30:24;10.70;99.90
10149;DHT22;5115;50.920;6.376;2024-02-21T09:32:50;10.70;99.90
10149;DHT22;5115;50.920;6.376;2024-02-21T09:35:15;10.80;99.90
10149;DHT22;5115;50.920;6.376;2024-02-21T09:37:41;10.90;99.90
10149;DHT22;5115;50.920;6.376;2024-02-21T09:40:07;11.00;99.90
10149;DHT22;5115;50.920;6.376;2024-02-21T09:42:42;11.00;99.90
10149;DHT22;5115;50.920;6.376;2024-02-21T09:45:12;11.10;99.90
10149;DHT22;5115;50.920;6.376;2024-02-21T09:50:34;11.00;99.90
10149;DHT22;5115;50.920;6.376;2024-02-21T09:53:02;11.00;99.90
10149;DHT22;5115;50.920;6.376;2024-02-21T09:55:29;11.10;99.90
10149;DHT22;5115;50.920;6.376;2024-02-21T09:57:57;11.10;99.90
10149;DHT22;5115;50.920;6.376;2024-02-21T10:00:23;11.00;99.90
10149;DHT22;5115;50.920;6.376;2024-02-21T10:02:49;11.10;99.90
10149;DHT22;5115;50.920;6.376;2024-02-21T10:05:15;11.10;99.90
10149;DHT22;5115;50.920;6.376;2024-02-21T10:07:41;11.20;99.90
10149;DHT22;5115;50.920;6.376;2024-02-21T10:10:08;11.10;99.90
10149;DHT22;5115;50.920;6.376;2024-02-21T10:12:33;11.20;99.90
10149;DHT22;5115;50.920;6.376;2024-02-21T10:15:06;11.10;99.90
10149;DHT22;5115;50.920;6.376;2024-02-21T10:17:35;11.20;99.90
10149;DHT22;5115;50.920;6.376;2024-02-21T10:20:11;11.20;99.90
10149;DHT22;5115;50.920;6.376;2024-02-21T10:22:38;11.20;99.90
10149;DHT22;5115;50.920;6.376;2024-02-21T10:25:12;11.20;99.90
10149;DHT22;5115;50.920;6.376;2024-02-21T10:27:41;11.30;99.90
10149;DHT22;5115;50.920;6.376;2024-02-21T10:30:13;11.30;99.90
10149;DHT22;5115;50.920;6.376;2024-02-21T10:32:53;11.20;99.90
10149;DHT22;5115;50.920;6.376;2024-02-21T10:35:30;11.20;99.90
10149;DHT22;5115;50.920;6.376;2024-02-21T10:37:57;11.30;99.90
10149;DHT22;5115;50.920;6.376;2024-02-21T10:40:27;11.40;99.90
10149;DHT22;5115;50.920;6.376;2024-02-21T10:43:00;11.50;99.90
10149;DHT22;5115;50.920;6.376;2024-02-21T10:45:30;11.50;99.90
10149;DHT22;5115;50.920;6.376;2024-02-21T10:48:06;11.50;99.90
10149;DHT22;5115;50.920;6.376;2024-02-21T10:50:42;11.50;99.90
10149;DHT22;5115;50.920;6.376;2024-02-21T10:53:39;11.60;99.90
10149;DHT22;5115;50.920;6.376;2024-02-21T10:56:25;11.70;99.90
10149;DHT22;5115;50.920;6.376;2024-02-21T10:58:52;11.60;99.90
10149;DHT22;5115;50.920;6.376;2024-02-21T11:01:19;11.70;99.90
10149;DHT22;5115;50.920;6.376;2024-02-21T11:03:47;11.80;99.90
10149;DHT22;5115;50.920;6.376;2024-02-21T11:06:15;11.80;99.90
10149;DHT22;5115;50.920;6.376;2024-02-21T11:08:41;11.80;99.90
10149;DHT22;5115;50.920;6.376;2024-02-21T11:11:07;11.90;99.90
10149;DHT22;5115;50.920;6.376;2024-02-21T11:13:35;11.90;99.90
10149;DHT22;5115;50.920;6.376;2024-02-21T11:16:11;11.90;99.90
10149;DHT22;5115;50.920;6.376;2024-02-21T11:18:38;11.90;99.90
10149;DHT22;5115;50.920;6.376;2024-02-21T11:21:03;12.00;99.90
10149;DHT22;5115;50.920;6.376;2024-02-21T11:23:32;11.90;99.90
10149;DHT22;5115;50.920;6.376;2024-02-21T11:26:10;11.90;99.90
10149;DHT22;5115;50.920;6.376;2024-02-21T11:28:44;12.10;99.90
10149;DHT22;5115;50.920;6.376;2024-02-21T11:31:13;12.10;99.90
10149;DHT22;5115;50.920;6.376;2024-02-21T11:33:40;12.00;99.90
10149;DHT22;5115;50.920;6.376;2024-02-21T11:36:07;12.00;99.90
10149;DHT22;5115;50.920;6.376;2024-02-21T11:38:33;12.00;99.90
10149;DHT22;5115;50.920;6.376;2024-02-21T11:40:58;12.00;99.90
10149;DHT22;5115;50.920;6.376;2024-02-21T11:43:24;12.00;99.90
10149;DHT22;5115;50.920;6.376;2024-02-21T11:45:50;12.10;99.90
10149;DHT22;5115;50.920;6.376;2024-02-21T11:48:16;12.20;99.90
10149;DHT22;5115;50.920;6.376;2024-02-21T11:50:42;12.10;99.90
10149;DHT22;5115;50.920;6.376;2024-02-21T11:53:07;12.10;99.90
10149;DHT22;5115;50.920;6.376;2024-02-21T11:55:32;12.10;99.90
10149;DHT22;5115;50.920;6.376;2024-02-21T11:57:59;12.20;99.90
10149;DHT22;5115;50.920;6.376;2024-02-21T12:00:25;12.20;99.90
10149;DHT22;5115;50.920;6.376;2024-02-21T12:02:51;12.00;99.90
10149;DHT22;5115;50.920;6.376;2024-02-21T12:05:19;12.10;99.90
10149;DHT22;5115;50.920;6.376;2024-02-21T12:07:45;12.10;99.90
10149;DHT22;5115;50.920;6.376;2024-02-21T12:10:12;12.00;99.90
10149;DHT22;5115;50.920;6.376;2024-02-21T12:12:38;11.90;99.90
10149;DHT22;5115;50.920;6.376;2024-02-21T12:15:05;11.90;99.90
10149;DHT22;5115;50.920;6.376;2024-02-21T12:17:34;12.10;99.90
10149;DHT22;5115;50.920;6.376;2024-02-21T12:20:01;12.30;99.90
10149;DHT22;5115;50.920;6.376;2024-02-21T12:22:26;12.50;99.90
10149;DHT22;5115;50.920;6.376;2024-02-21T12:24:53;12.50;99.90
10149;DHT22;5115;50.920;6.376;2024-02-21T12:27:19;12.60;99.90
10149;DHT22;5115;50.920;6.376;2024-02-21T12:29:45;12.50;99.90
10149;DHT22;5115;50.920;6.376;2024-02-21T12:32:11;12.80;99.90
10149;DHT22;5115;50.920;6.376;2024-02-21T12:34:36;13.00;99.90
10149;DHT22;5115;50.920;6.376;2024-02-21T12:37:02;13.10;99.90
10149;DHT22;5115;50.920;6.376;2024-02-21T12:39:28;13.20;99.90
10149;DHT22;5115;50.920;6.376;2024-02-21T12:41:54;13.30;99.90
10149;DHT22;5115;50.920;6.376;2024-02-21T12:44:21;13.40;99.90
10149;DHT22;5115;50.920;6.376;2024-02-21T12:46:47;13.50;99.90
10149;DHT22;5115;50.920;6.376;2024-02-21T12:49:17;13.70;99.90
10149;DHT22;5115;50.920;6.376;2024-02-21T12:51:43;13.80;99.90
10149;DHT22;5115;50.920;6.376;2024-02-21T12:54:09;14.00;99.90
10149;DHT22;5115;50.920;6.376;2024-02-21T12:56:36;14.00;99.90
10149;DHT22;5115;50.920;6.376;2024-02-21T12:59:02;14.20;99.90
10149;DHT22;5115;50.920;6.376;2024-02-21T13:01:27;14.30;99.90
10149;DHT22;5115;50.920;6.376;2024-02-21T13:03:53;14.30;99.90
10149;DHT22;5115;50.920;6.376;2024-02-21T13:06:19;14.40;99.90
10149;DHT22;5115;50.920;6.376;2024-02-21T13:08:45;14.40;99.90
10149;DHT22;5115;50.920;6.376;2024-02-21T13:11:12;14.50;99.90
10149;DHT22;5115;50.920;6.376;2024-02-21T13:13:37;14.60;99.90
10149;DHT22;5115;50.920;6.376;2024-02-21T13:16:03;14.70;99.90
10149;DHT22;5115;50.920;6.376;2024-02-21T13:18:29;14.70;99.90
10149;DHT22;5115;50.920;6.376;2024-02-21T13:20:55;15.10;99.90
10149;DHT22;5115;50.920;6.376;2024-02-21T13:23:21;14.50;99.90
10149;DHT22;5115;50.920;6.376;2024-02-21T13:25:47;14.40;99.90
10149;DHT22;5115;50.920;6.376;2024-02-21T13:28:12;14.30;99.90
10149;DHT22;5115;50.920;6.376;2024-02-21T13:30:38;14.30;99.90
10149;DHT22;5115;50.920;6.376;2024-02-21T13:33:06;14.20;99.90
10149;DHT22;5115;50.920;6.376;2024-02-21T13:35:32;14.30;99.90
10149;DHT22;5115;50.920;6.376;2024-02-21T13:37:57;14.20;99.90
10149;DHT22;5115;50.920;6.376;2024-02-21T13:40:23;13.20;99.90
10149;DHT22;5115;50.920;6.376;2024-02-21T13:42:49;13.90;99.90
10149;DHT22;5115;50.920;6.376;2024-02-21T13:45:16;13.90;99.90
10149;DHT22;5115;50.920;6.376;2024-02-21T13:47:42;13.90;99.90
10149;DHT22;5115;50.920;6.376;2024-02-21T13:50:07;13.80;99.90
10149;DHT22;5115;50.920;6.376;2024-02-21T13:52:37;13.80;99.90
10149;DHT22;5115;50.920;6.376;2024-02-21T13:55:03;13.70;99.90
10149;DHT22;5115;50.920;6.376;2024-02-21T13:57:29;13.70;99.90
10149;DHT22;5115;50.920;6.376;2024-02-21T13:59:54;13.70;99.90
10149;DHT22;5115;50.920;6.376;2024-02-21T14:02:20;13.70;99.90
10149;DHT22;5115;50.920;6.376;2024-02-21T14:04:46;13.50;99.90
10149;DHT22;5115;50.920;6.376;2024-02-21T14:07:12;13.50;99.90
10149;DHT22;5115;50.920;6.376;2024-02-21T14:09:37;13.40;99.90
10149;DHT22;5115;50.920;6.376;2024-02-21T14:12:03;13.30;99.90
10149;DHT22;5115;50.920;6.376;2024-02-21T14:14:34;13.40;99.90
10149;DHT22;5115;50.920;6.376;2024-02-21T14:16:59;13.40;99.90
10149;DHT22;5115;50.920;6.376;2024-02-21T14:19:25;13.40;99.90
10149;DHT22;5115;50.920;6.376;2024-02-21T14:21:51;13.40;99.90
10149;DHT22;5115;50.920;6.376;2024-02-21T14:24:16;13.40;99.90
10149;DHT22;5115;50.920;6.376;2024-02-21T14:26:42;13.40;99.90
10149;DHT22;5115;50.920;6.376;2024-02-21T14:29:07;13.40;99.90
10149;DHT22;5115;50.920;6.376;2024-02-21T14:31:33;13.40;99.90
10149;DHT22;5115;50.920;6.376;2024-02-21T14:33:59;13.50;99.90
10149;DHT22;5115;50.920;6.376;2024-02-21T14:36:26;13.50;99.90
10149;DHT22;5115;50.920;6.376;2024-02-21T14:38:51;13.40;99.90
10149;DHT22;5115;50.920;6.376;2024-02-21T14:41:18;13.30;99.90
10149;DHT22;5115;50.920;6.376;2024-02-21T14:43:43;13.20;99.90
10149;DHT22;5115;50.920;6.376;2024-02-21T14:46:09;13.20;99.90
10149;DHT22;5115;50.920;6.376;2024-02-21T14:48:34;13.10;99.90
10149;DHT22;5115;50.920;6.376;2024-02-21T14:51:01;13.10;99.90
10149;DHT22;5115;50.920;6.376;2024-02-21T14:53:27;13.00;99.90
10149;DHT22;5115;50.920;6.376;2024-02-21T14:55:53;12.90;99.90
10149;DHT22;5115;50.920;6.376;2024-02-21T14:58:18;13.00;99.90
10149;DHT22;5115;50.920;6.376;2024-02-21T15:00:45;12.90;99.90
10149;DHT22;5115;50.920;6.376;2024-02-21T15:03:12;12.80;99.90
10149;DHT22;5115;50.920;6.376;2024-02-21T15:05:40;12.80;99.90
10149;DHT22;5115;50.920;6.376;2024-02-21T15:08:06;12.90;99.90
10149;DHT22;5115;50.920;6.376;2024-02-21T15:10:33;12.90;99.90
10149;DHT22;5115;50.920;6.376;2024-02-21T15:12:59;12.90;99.90
10149;DHT22;5115;50.920;6.376;2024-02-21T15:15:24;13.00;99.90
10149;DHT22;5115;50.920;6.376;2024-02-21T15:17:50;12.80;99.90
10149;DHT22;5115;50.920;6.376;2024-02-21T15:20:16;12.80;99.90
10149;DHT22;5115;50.920;6.376;2024-02-21T15:22:41;12.90;99.90
10149;DHT22;5115;50.920;6.376;2024-02-21T15:25:07;12.90;99.90
10149;DHT22;5115;50.920;6.376;2024-02-21T15:27:38;12.90;99.90
10149;DHT22;5115;50.920;6.376;2024-02-21T15:30:04;12.90;99.90
10149;DHT22;5115;50.920;6.376;2024-02-21T15:32:30;12.90;99.90
10149;DHT22;5115;50.920;6.376;2024-02-21T15:34:55;12.90;99.90
10149;DHT22;5115;50.920;6.376;2024-02-21T15:37:21;12.90;99.90
10149;DHT22;5115;50.920;6.376;2024-02-21T15:39:46;12.80;99.90
10149;DHT22;5115;50.920;6.376;2024-02-21T15:42:13;12.90;99.90
10149;DHT22;5115;50.920;6.376;2024-02-21T15:44:38;12.80;99.90
10149;DHT22;5115;50.920;6.376;2024-02-21T15:47:04;12.80;99.90
10149;DHT22;5115;50.920;6.376;2024-02-21T15:49:30;12.70;99.90
10149;DHT22;5115;50.920;6.376;2024-02-21T15:51:55;12.70;99.90
10149;DHT22;5115;50.920;6.376;2024-02-21T15:54:21;12.70;99.90
10149;DHT22;5115;50.920;6.376;2024-02-21T15:56:46;12.70;99.90
10149;DHT22;5115;50.920;6.376;2024-02-21T15:59:12;12.60;99.90